createdAt,value
2018-03-01T00:01:28.259Z,-8.50
2018-03-01T00:03:55.767Z,-8.60
2018-03-01T00:06:23.496Z,-8.50
2018-03-01T00:08:51.011Z,-8.80
2018-03-01T00:11:18.524Z,-8.70
2018-03-01T00:13:46.042Z,-8.50
2018-03-01T00:16:13.560Z,-8.40
2018-03-01T00:18:41.083Z,-8.40
2018-03-01T00:21:08.594Z,-8.30
2018-03-01T00:23:36.325Z,-8.30
2018-03-01T00:26:03.838Z,-8.20
2018-03-01T00:28:31.347Z,-8.40
2018-03-01T00:30:58.981Z,-8.40
2018-03-01T00:33:26.765Z,-8.30
2018-03-01T00:35:54.284Z,-8.30
2018-03-01T00:38:21.805Z,-8.30
2018-03-01T00:40:49.320Z,-8.40
2018-03-01T00:43:16.840Z,-8.40
2018-03-01T00:45:44.343Z,-8.50
2018-03-01T00:48:12.866Z,-8.50
2018-03-01T00:50:40.379Z,-8.50
2018-03-01T00:53:07.955Z,-8.40
2018-03-01T00:55:35.467Z,-8.40
2018-03-01T00:58:03.173Z,-8.40
2018-03-01T01:00:30.716Z,-8.40
2018-03-01T01:02:58.234Z,-8.30
2018-03-01T01:05:26.520Z,-8.60
2018-03-01T01:07:54.026Z,-8.60
2018-03-01T01:10:21.543Z,-8.50
2018-03-01T01:12:49.048Z,-8.30
2018-03-01T01:15:16.697Z,-8.30
2018-03-01T01:17:44.468Z,-8.30
2018-03-01T01:20:12.003Z,-8.40
2018-03-01T01:22:39.509Z,-8.30
2018-03-01T01:25:07.031Z,-8.40
2018-03-01T01:27:34.796Z,-8.20
2018-03-01T01:30:02.979Z,-8.40
2018-03-01T01:32:30.631Z,-8.20
2018-03-01T01:34:58.140Z,-8.00
2018-03-01T01:37:25.827Z,-8.10
2018-03-01T01:39:53.328Z,-8.20
2018-03-01T01:42:21.688Z,-8.20
2018-03-01T01:44:49.235Z,-8.20
2018-03-01T01:47:16.819Z,-8.20
2018-03-01T01:49:44.340Z,-8.00
2018-03-01T01:52:11.863Z,-8.10
2018-03-01T01:54:39.544Z,-7.90
2018-03-01T01:57:07.048Z,-7.90
2018-03-01T01:59:36.096Z,-7.80
2018-03-01T02:02:03.804Z,-7.80
2018-03-01T02:04:31.380Z,-7.90
2018-03-01T02:06:58.896Z,-7.70
2018-03-01T02:09:26.467Z,-7.70
2018-03-01T02:11:53.988Z,-7.60
2018-03-01T02:14:21.699Z,-7.50
2018-03-01T02:16:49.222Z,-7.60
2018-03-01T02:19:16.928Z,-7.50
2018-03-01T02:21:45.948Z,-7.70
2018-03-01T02:24:13.631Z,-7.70
2018-03-01T02:26:41.436Z,-7.70
2018-03-01T02:29:09.198Z,-7.90
2018-03-01T02:31:36.705Z,-7.80
2018-03-01T02:34:04.230Z,-7.70
2018-03-01T02:36:33.429Z,-7.70
2018-03-01T02:39:00.947Z,-7.70
2018-03-01T02:41:28.461Z,-7.80
2018-03-01T02:43:56.735Z,-7.80
2018-03-01T02:46:24.464Z,-7.90
2018-03-01T02:48:52.638Z,-7.70
2018-03-01T02:51:20.260Z,-7.80
2018-03-01T02:53:48.057Z,-7.60
2018-03-01T02:56:15.575Z,-7.70
2018-03-01T02:58:43.284Z,-7.80
2018-03-01T03:01:10.796Z,-7.70
2018-03-01T03:03:38.475Z,-7.70
2018-03-01T03:06:05.989Z,-7.80
2018-03-01T03:08:33.503Z,-7.90
2018-03-01T03:11:01.198Z,-7.90
2018-03-01T03:13:28.711Z,-8.00
2018-03-01T03:15:56.363Z,-7.90
2018-03-01T03:18:23.879Z,-7.80
2018-03-01T03:20:52.069Z,-7.90
2018-03-01T03:23:20.606Z,-7.90
2018-03-01T03:25:48.370Z,-7.90
2018-03-01T03:28:16.302Z,-8.00
2018-03-01T03:30:43.871Z,-8.20
2018-03-01T03:33:11.377Z,-8.20
2018-03-01T03:35:39.116Z,-8.30
2018-03-01T03:38:06.631Z,-8.20
2018-03-01T03:40:35.039Z,-8.10
2018-03-01T03:43:02.548Z,-8.10
2018-03-01T03:45:30.826Z,-8.30
2018-03-01T03:47:58.531Z,-8.30
2018-03-01T03:50:26.050Z,-8.40
2018-03-01T03:52:53.745Z,-8.40
2018-03-01T03:55:21.263Z,-8.30
2018-03-01T03:57:48.996Z,-8.60
2018-03-01T04:00:16.508Z,-8.40
2018-03-01T04:02:44.516Z,-8.50
2018-03-01T04:05:12.043Z,-8.40
2018-03-01T04:07:39.551Z,-8.50
2018-03-01T04:10:07.079Z,-8.40
2018-03-01T04:12:34.580Z,-8.60
2018-03-01T04:15:03.011Z,-8.70
2018-03-01T04:17:30.552Z,-8.70
2018-03-01T04:19:58.062Z,-8.80
2018-03-01T04:22:25.708Z,-8.80
2018-03-01T04:24:53.211Z,-8.70
2018-03-01T04:27:20.924Z,-8.90
2018-03-01T04:29:48.441Z,-8.80
2018-03-01T04:32:16.166Z,-8.70
2018-03-01T04:34:43.915Z,-8.70
2018-03-01T04:37:11.439Z,-8.70
2018-03-01T04:39:38.940Z,-8.60
2018-03-01T04:42:06.606Z,-8.80
2018-03-01T04:44:34.116Z,-8.90
2018-03-01T04:47:01.821Z,-8.80
2018-03-01T04:49:29.336Z,-8.80
2018-03-01T04:51:57.625Z,-8.70
2018-03-01T04:54:25.396Z,-8.80
2018-03-01T04:56:52.882Z,-9.20
2018-03-01T04:59:20.642Z,-9.10
2018-03-01T05:01:48.157Z,-9.10
2018-03-01T05:04:15.658Z,-9.10
2018-03-01T05:06:43.175Z,-9.30
2018-03-01T05:09:10.699Z,-9.10
2018-03-01T05:11:38.208Z,-9.20
2018-03-01T05:14:06.068Z,-9.10
2018-03-01T05:16:33.568Z,-9.00
2018-03-01T05:19:01.852Z,-9.50
2018-03-01T05:21:29.364Z,-9.50
2018-03-01T05:23:56.884Z,-9.30
2018-03-01T05:26:24.396Z,-9.30
2018-03-01T05:28:51.899Z,-9.40
2018-03-01T05:31:19.427Z,-9.50
2018-03-01T05:33:46.915Z,-9.60
2018-03-01T05:36:14.424Z,-9.50
2018-03-01T05:38:42.039Z,-9.90
2018-03-01T05:41:09.541Z,-9.70
2018-03-01T05:43:37.061Z,-9.50
2018-03-01T05:46:04.567Z,-9.70
2018-03-01T05:48:32.211Z,-9.70
2018-03-01T05:50:59.713Z,-9.60
2018-03-01T05:53:27.425Z,-9.80
2018-03-01T05:55:54.933Z,-9.80
2018-03-01T05:58:22.440Z,-9.60
2018-03-01T06:00:50.026Z,-9.70
2018-03-01T06:03:17.543Z,-9.90
2018-03-01T06:05:45.060Z,-9.80
2018-03-01T06:08:12.757Z,-9.50
2018-03-01T06:10:40.618Z,-9.50
2018-03-01T06:13:08.123Z,-9.60
2018-03-01T06:15:35.983Z,-9.60
2018-03-01T06:18:03.495Z,-9.60
2018-03-01T06:20:30.995Z,-9.60
2018-03-01T06:23:00.007Z,-9.90
2018-03-01T06:25:27.516Z,-9.90
2018-03-01T06:27:56.925Z,-9.80
2018-03-01T06:30:24.423Z,-9.80
2018-03-01T06:32:51.943Z,-9.60
2018-03-01T06:35:19.447Z,-9.60
2018-03-01T06:37:46.963Z,-9.70
2018-03-01T06:40:14.612Z,-9.60
2018-03-01T06:42:42.398Z,-9.60
2018-03-01T06:45:09.903Z,-9.50
2018-03-01T06:47:37.411Z,-9.70
2018-03-01T06:50:05.077Z,-9.40
2018-03-01T06:52:32.692Z,-7.00
2018-03-01T06:55:00.304Z,-5.50
2018-03-01T06:57:29.363Z,-4.60
2018-03-01T06:59:56.883Z,-4.60
2018-03-01T07:02:25.160Z,-6.80
2018-03-01T07:04:52.687Z,-6.80
2018-03-01T07:07:20.427Z,-7.20
2018-03-01T07:09:49.002Z,-7.70
2018-03-01T07:12:16.656Z,-8.00
2018-03-01T07:14:44.242Z,-8.00
2018-03-01T07:17:11.783Z,-8.00
2018-03-01T07:19:39.380Z,-8.00
2018-03-01T07:22:06.899Z,-8.30
2018-03-01T07:24:34.688Z,-8.30
2018-03-01T07:27:02.456Z,-8.30
2018-03-01T07:29:30.214Z,-8.30
2018-03-01T07:31:57.778Z,-8.20
2018-03-01T07:34:25.422Z,-8.30
2018-03-01T07:36:52.949Z,-8.50
2018-03-01T07:39:20.472Z,-8.40
2018-03-01T07:41:47.982Z,-8.40
2018-03-01T07:44:15.567Z,-8.10
2018-03-01T07:46:43.083Z,-8.20
2018-03-01T07:49:10.780Z,-8.10
2018-03-01T07:51:38.655Z,-8.10
2018-03-01T07:54:06.312Z,-8.00
2018-03-01T07:56:33.844Z,-7.90
2018-03-01T07:59:01.535Z,-7.80
2018-03-01T08:01:29.039Z,-7.80
2018-03-01T08:03:56.729Z,-7.70
2018-03-01T08:06:24.237Z,-7.50
2018-03-01T08:08:52.470Z,-7.60
2018-03-01T08:11:20.013Z,-7.40
2018-03-01T08:13:47.504Z,-7.30
2018-03-01T08:16:15.020Z,-7.30
2018-03-01T08:18:42.536Z,-7.40
2018-03-01T08:21:10.185Z,-7.40
2018-03-01T08:23:38.535Z,-7.30
2018-03-01T08:26:06.213Z,-7.20
2018-03-01T08:28:34.420Z,-7.00
2018-03-01T08:31:02.131Z,-7.00
2018-03-01T08:33:29.912Z,-6.80
2018-03-01T08:35:57.457Z,-6.80
2018-03-01T08:38:25.143Z,-6.90
2018-03-01T08:40:54.444Z,-6.90
2018-03-01T08:43:21.952Z,-6.90
2018-03-01T08:45:49.462Z,-6.90
2018-03-01T08:48:16.976Z,-6.70
2018-03-01T08:50:44.648Z,-6.60
2018-03-01T08:53:12.184Z,-6.70
2018-03-01T08:55:39.759Z,-6.50
2018-03-01T08:58:07.508Z,-6.50
2018-03-01T09:00:35.936Z,-6.60
2018-03-01T09:03:03.446Z,-6.40
2018-03-01T09:05:30.960Z,-6.50
2018-03-01T09:07:58.499Z,-6.40
2018-03-01T09:10:26.064Z,-6.30
2018-03-01T09:12:53.588Z,-6.40
2018-03-01T09:15:21.100Z,-6.40
2018-03-01T09:17:48.736Z,-6.20
2018-03-01T09:20:16.248Z,-6.20
2018-03-01T09:22:43.771Z,-6.10
2018-03-01T09:25:11.371Z,-6.00
2018-03-01T09:27:38.884Z,-5.80
2018-03-01T09:30:07.543Z,-5.80
2018-03-01T09:32:35.071Z,-5.70
2018-03-01T09:35:02.681Z,-5.70
2018-03-01T09:37:30.245Z,-5.90
2018-03-01T09:39:57.824Z,-5.90
2018-03-01T09:42:26.100Z,-5.70
2018-03-01T09:44:53.916Z,-5.70
2018-03-01T09:47:21.551Z,-5.60
2018-03-01T09:49:49.087Z,-5.70
2018-03-01T09:52:16.591Z,-5.50
2018-03-01T09:54:44.115Z,-5.60
2018-03-01T09:57:11.649Z,-5.60
2018-03-01T09:59:39.164Z,-5.50
2018-03-01T10:02:06.676Z,-5.30
2018-03-01T10:04:34.428Z,-5.20
2018-03-01T10:07:02.213Z,-5.20
2018-03-01T10:09:29.904Z,-5.40
2018-03-01T10:11:57.448Z,-5.30
2018-03-01T10:14:25.153Z,-5.10
2018-03-01T10:16:52.924Z,-5.00
2018-03-01T10:19:20.441Z,-5.10
2018-03-01T10:21:48.141Z,-5.30
2018-03-01T10:24:17.169Z,-5.20
2018-03-01T10:26:44.718Z,-5.20
2018-03-01T10:29:13.276Z,-5.00
2018-03-01T10:31:41.054Z,-5.00
2018-03-01T10:34:08.811Z,-5.00
2018-03-01T10:36:36.900Z,-5.00
2018-03-01T10:39:05.233Z,-5.10
2018-03-01T10:41:32.749Z,-5.00
2018-03-01T10:44:00.249Z,-4.90
2018-03-01T10:46:27.940Z,-5.00
2018-03-01T10:48:55.684Z,-5.00
2018-03-01T10:51:23.211Z,-4.90
2018-03-01T10:53:50.726Z,-4.80
2018-03-01T10:56:18.244Z,-5.10
2018-03-01T10:58:46.731Z,-4.80
2018-03-01T11:01:19.412Z,-4.60
2018-03-01T11:03:46.922Z,-4.70
2018-03-01T11:06:14.610Z,-4.70
2018-03-01T11:08:42.129Z,-4.90
2018-03-01T11:11:09.640Z,-4.80
2018-03-01T11:13:37.173Z,-4.70
2018-03-01T11:16:04.764Z,-4.80
2018-03-01T11:18:32.976Z,-4.80
2018-03-01T11:21:01.275Z,-4.40
2018-03-01T11:23:28.800Z,-4.50
2018-03-01T11:25:56.369Z,-4.30
2018-03-01T11:28:23.887Z,-4.20
2018-03-01T11:30:51.412Z,-4.10
2018-03-01T11:33:18.918Z,-4.10
2018-03-01T11:35:46.567Z,-4.10
2018-03-01T11:38:14.050Z,-4.10
2018-03-01T11:40:41.564Z,-4.20
2018-03-01T11:43:09.217Z,-4.30
2018-03-01T11:45:36.774Z,-4.50
2018-03-01T11:48:04.288Z,-4.60
2018-03-01T11:50:31.792Z,-4.50
2018-03-01T11:52:59.304Z,-4.50
2018-03-01T11:55:26.809Z,-4.30
2018-03-01T11:57:54.440Z,-4.20
2018-03-01T12:00:22.712Z,-4.10
2018-03-01T12:02:50.232Z,-4.10
2018-03-01T12:05:17.744Z,-4.00
2018-03-01T12:07:45.321Z,-3.80
2018-03-01T12:10:12.829Z,-3.70
2018-03-01T12:12:40.391Z,-3.60
2018-03-01T12:15:07.980Z,-3.50
2018-03-01T12:17:35.488Z,-3.50
2018-03-01T12:20:03.013Z,-3.50
2018-03-01T12:22:30.520Z,-3.40
2018-03-01T12:24:58.043Z,-3.40
2018-03-01T12:27:25.589Z,-3.70
2018-03-01T12:29:53.096Z,-3.70
2018-03-01T12:32:20.810Z,-3.60
2018-03-01T12:34:48.591Z,-3.70
2018-03-01T12:37:16.111Z,-3.60
2018-03-01T12:39:43.811Z,-3.60
2018-03-01T12:42:11.347Z,-3.40
2018-03-01T12:44:38.939Z,-3.50
2018-03-01T12:47:06.492Z,-3.40
2018-03-01T12:49:33.988Z,-3.40
2018-03-01T12:52:01.708Z,-3.60
2018-03-01T12:54:29.232Z,-3.60
2018-03-01T12:56:56.896Z,-3.50
2018-03-01T12:59:24.412Z,-3.60
2018-03-01T13:01:51.930Z,-3.90
2018-03-01T13:04:34.314Z,-3.90
2018-03-01T13:07:01.836Z,-3.80
2018-03-01T13:09:29.344Z,-3.80
2018-03-01T13:11:56.851Z,-3.70
2018-03-01T13:14:25.167Z,-3.70
2018-03-01T13:16:52.660Z,-3.70
2018-03-01T13:19:20.296Z,-3.50
2018-03-01T13:21:47.854Z,-3.60
2018-03-01T13:24:15.373Z,-3.60
2018-03-01T13:26:42.864Z,-3.40
2018-03-01T13:29:10.363Z,-3.20
2018-03-01T13:31:48.694Z,-3.40
2018-03-01T13:34:21.928Z,-3.20
2018-03-01T13:36:49.442Z,-3.20
2018-03-01T13:39:16.957Z,-3.40
2018-03-01T13:41:44.465Z,-3.50
2018-03-01T13:44:12.744Z,-3.40
2018-03-01T13:46:41.659Z,-3.40
2018-03-01T13:49:09.948Z,-3.60
2018-03-01T13:51:37.455Z,-3.60
2018-03-01T13:54:05.007Z,-3.40
2018-03-01T13:56:32.520Z,-3.30
2018-03-01T13:59:01.192Z,-3.40
2018-03-01T14:01:28.793Z,-3.50
2018-03-01T14:03:56.304Z,-3.50
2018-03-01T14:06:39.414Z,-3.40
2018-03-01T14:09:06.920Z,-3.50
2018-03-01T14:11:34.419Z,-3.50
2018-03-01T14:14:03.183Z,-3.50
2018-03-01T14:16:30.823Z,-3.30
2018-03-01T14:19:01.156Z,-3.20
2018-03-01T14:21:34.234Z,-3.20
2018-03-01T14:24:04.672Z,-3.30
2018-03-01T14:26:34.076Z,-3.60
2018-03-01T14:29:07.208Z,-3.50
2018-03-01T14:31:34.897Z,-3.50
2018-03-01T14:34:02.396Z,-3.60
2018-03-01T14:36:30.151Z,-3.60
2018-03-01T14:38:57.672Z,-3.60
2018-03-01T14:41:25.176Z,-3.70
2018-03-01T14:43:52.794Z,-3.50
2018-03-01T14:46:20.291Z,-3.40
2018-03-01T14:48:47.809Z,-3.30
2018-03-01T14:51:15.411Z,-3.30
2018-03-01T14:53:43.040Z,-3.50
2018-03-01T14:56:10.651Z,-3.50
2018-03-01T14:58:39.124Z,-3.40
2018-03-01T15:01:06.600Z,-3.40
2018-03-01T15:03:34.108Z,-3.50
2018-03-01T15:06:01.770Z,-3.60
2018-03-01T15:08:29.288Z,-3.70
2018-03-01T15:10:56.996Z,-3.60
2018-03-01T15:13:24.520Z,-3.60
2018-03-01T15:15:52.031Z,-3.80
2018-03-01T15:18:19.688Z,-3.70
2018-03-01T15:20:47.200Z,-3.70
2018-03-01T15:23:14.708Z,-3.70
2018-03-01T15:25:42.992Z,-3.70
2018-03-01T15:28:10.698Z,-3.70
2018-03-01T15:30:38.936Z,-3.70
2018-03-01T15:33:07.205Z,-4.00
2018-03-01T15:35:34.711Z,-4.00
2018-03-01T15:38:02.700Z,-3.90
2018-03-01T15:40:31.755Z,-4.10
2018-03-01T15:42:59.263Z,-4.00
2018-03-01T15:45:26.880Z,-4.10
2018-03-01T15:47:54.698Z,-4.10
2018-03-01T15:50:22.439Z,-4.20
2018-03-01T15:52:50.237Z,-4.20
2018-03-01T15:55:17.761Z,-4.10
2018-03-01T15:57:45.260Z,-4.10
2018-03-01T16:00:13.662Z,-4.30
2018-03-01T16:02:41.931Z,-4.30
2018-03-01T16:05:09.659Z,-4.40
2018-03-01T16:07:37.176Z,-4.20
2018-03-01T16:10:04.825Z,-4.30
2018-03-01T16:12:32.618Z,-4.20
2018-03-01T16:15:00.153Z,-4.10
2018-03-01T16:17:27.699Z,-4.00
2018-03-01T16:19:55.250Z,-4.00
2018-03-01T16:22:22.828Z,-4.00
2018-03-01T16:24:50.341Z,-4.30
2018-03-01T16:27:17.862Z,-4.40
2018-03-01T16:29:45.355Z,-4.50
2018-03-01T16:32:12.886Z,-4.60
2018-03-01T16:34:40.406Z,-4.40
2018-03-01T16:37:07.974Z,-4.40
2018-03-01T16:39:35.559Z,-4.50
2018-03-01T16:42:03.329Z,-4.70
2018-03-01T16:44:30.865Z,-4.60
2018-03-01T16:46:58.992Z,-4.60
2018-03-01T16:49:26.496Z,-4.60
2018-03-01T16:51:54.009Z,-4.70
2018-03-01T16:54:22.864Z,-4.70
2018-03-01T16:56:50.493Z,-4.70
2018-03-01T16:59:18.004Z,-4.60
2018-03-01T17:01:45.737Z,-4.80
2018-03-01T17:04:13.251Z,-4.90
2018-03-01T17:06:40.968Z,-4.80
2018-03-01T17:09:08.492Z,-4.90
2018-03-01T17:11:37.103Z,-4.90
2018-03-01T17:14:04.620Z,-4.90
2018-03-01T17:16:32.174Z,-4.90
2018-03-01T17:18:59.752Z,-5.00
2018-03-01T17:21:27.263Z,-5.00
2018-03-01T17:23:56.524Z,-5.10
2018-03-01T17:26:24.178Z,-5.00
2018-03-01T17:28:51.709Z,-5.10
2018-03-01T17:31:19.253Z,-5.10
2018-03-01T17:33:46.770Z,-5.00
2018-03-01T17:36:14.410Z,-5.00
2018-03-01T17:38:42.192Z,-3.60
2018-03-01T17:41:09.947Z,-1.50
2018-03-01T17:43:37.480Z,-0.80
2018-03-01T17:46:05.011Z,-2.10
2018-03-01T17:48:33.283Z,-3.90
2018-03-01T17:51:00.787Z,-3.90
2018-03-01T17:53:28.443Z,-4.20
2018-03-01T17:55:55.943Z,-4.50
2018-03-01T17:58:24.956Z,-4.60
2018-03-01T18:00:52.854Z,-4.60
2018-03-01T18:03:20.348Z,-4.70
2018-03-01T18:05:48.184Z,-4.60
2018-03-01T18:08:15.685Z,-4.80
2018-03-01T18:10:43.968Z,-5.00
2018-03-01T18:13:11.472Z,-5.00
2018-03-01T18:15:39.645Z,-5.30
2018-03-01T18:18:07.327Z,-5.30
2018-03-01T18:20:34.861Z,-5.20
2018-03-01T18:23:02.552Z,-5.10
2018-03-01T18:25:30.176Z,-5.20
2018-03-01T18:27:57.772Z,-5.20
2018-03-01T18:30:25.409Z,-5.30
2018-03-01T18:32:52.977Z,-5.30
2018-03-01T18:35:20.756Z,-5.40
2018-03-01T18:37:48.263Z,-5.40
2018-03-01T18:40:15.775Z,-5.40
2018-03-01T18:42:43.611Z,-5.40
2018-03-01T18:45:11.180Z,-5.40
2018-03-01T18:47:38.726Z,-5.30
2018-03-01T18:50:06.218Z,-5.40
2018-03-01T18:52:33.845Z,-5.30
2018-03-01T18:55:01.350Z,-5.20
2018-03-01T18:57:29.068Z,-5.40
2018-03-01T18:59:56.571Z,-5.30
2018-03-01T19:02:24.316Z,-5.30
2018-03-01T19:04:52.075Z,-5.40
2018-03-01T19:07:19.584Z,-5.30
2018-03-01T19:09:47.093Z,-5.30
2018-03-01T19:12:14.748Z,-5.50
2018-03-01T19:14:42.257Z,-5.30
2018-03-01T19:17:09.769Z,-5.40
2018-03-01T19:19:37.406Z,-5.50
2018-03-01T19:22:04.928Z,-5.30
2018-03-01T19:24:32.445Z,-5.50
2018-03-01T19:27:00.105Z,-5.70
2018-03-01T19:29:27.634Z,-5.60
2018-03-01T19:31:55.316Z,-5.60
2018-03-01T19:34:23.099Z,-5.70
2018-03-01T19:36:51.224Z,-5.60
2018-03-01T19:39:18.729Z,-5.80
2018-03-01T19:41:46.236Z,-5.60
2018-03-01T19:44:13.768Z,-5.50
2018-03-01T19:46:41.303Z,-5.40
2018-03-01T19:49:08.825Z,-5.60
2018-03-01T19:51:36.524Z,-5.50
2018-03-01T19:54:05.556Z,-5.60
2018-03-01T19:56:33.247Z,-5.60
2018-03-01T19:59:00.759Z,-5.70
2018-03-01T20:01:28.451Z,-5.80
2018-03-01T20:03:55.967Z,-5.70
2018-03-01T20:06:23.686Z,-5.60
2018-03-01T20:08:51.196Z,-5.70
2018-03-01T20:11:19.603Z,-5.70
2018-03-01T20:13:47.302Z,-5.60
2018-03-01T20:16:15.015Z,-5.60
2018-03-01T20:18:42.529Z,-5.50
2018-03-01T20:21:10.045Z,-5.50
2018-03-01T20:23:37.676Z,-4.40
2018-03-01T20:26:05.203Z,-4.20
2018-03-01T20:28:32.724Z,-4.60
2018-03-01T20:31:00.468Z,-4.90
2018-03-01T20:33:27.979Z,-5.30
2018-03-01T20:35:55.627Z,-5.30
2018-03-01T20:38:23.132Z,-5.40
2018-03-01T20:40:50.657Z,-5.30
2018-03-01T20:43:18.176Z,-5.40
2018-03-01T20:45:46.447Z,-5.50
2018-03-01T20:48:13.952Z,-5.50
2018-03-01T20:50:41.460Z,-5.60
2018-03-01T20:53:08.981Z,-5.60
2018-03-01T20:55:36.496Z,-5.50
2018-03-01T20:58:04.031Z,-5.40
2018-03-01T21:00:31.738Z,-5.40
2018-03-01T21:02:59.463Z,-5.60
2018-03-01T21:05:27.270Z,-5.70
2018-03-01T21:07:54.798Z,-5.80
2018-03-01T21:10:22.436Z,-5.80
2018-03-01T21:12:49.939Z,-5.70
2018-03-01T21:15:17.491Z,-5.60
2018-03-01T21:17:44.999Z,-5.60
2018-03-01T21:20:13.284Z,-5.70
2018-03-01T21:22:40.812Z,-5.70
2018-03-01T21:25:08.536Z,-5.70
2018-03-01T21:27:36.032Z,-3.30
2018-03-01T21:30:03.721Z,-1.70
2018-03-01T21:32:31.439Z,-1.50
2018-03-01T21:34:58.957Z,-1.70
2018-03-01T21:37:26.619Z,-1.10
2018-03-01T21:39:54.164Z,-2.60
2018-03-01T21:42:32.560Z,-3.50
2018-03-01T21:45:00.073Z,-4.00
2018-03-01T21:47:27.569Z,-4.70
2018-03-01T21:49:55.192Z,-5.10
2018-03-01T21:52:22.763Z,-5.50
2018-03-01T21:54:50.487Z,-5.50
2018-03-01T21:57:18.307Z,-5.70
2018-03-01T21:59:45.830Z,-5.80
2018-03-01T22:02:13.396Z,-5.80
2018-03-01T22:04:40.971Z,-5.70
2018-03-01T22:07:08.491Z,-5.80
2018-03-01T22:09:36.150Z,-5.70
2018-03-01T22:12:03.669Z,-5.80
2018-03-01T22:14:31.334Z,-5.80
2018-03-01T22:16:58.840Z,-5.70
2018-03-01T22:19:26.479Z,-6.00
2018-03-01T22:21:54.366Z,-6.00
2018-03-01T22:24:22.163Z,-5.90
2018-03-01T22:26:49.690Z,-6.00
2018-03-01T22:29:17.208Z,-6.50
2018-03-01T22:31:46.369Z,-6.70
2018-03-01T22:34:14.112Z,-6.70
2018-03-01T22:36:41.636Z,-6.70
2018-03-01T22:39:09.348Z,-6.80
2018-03-01T22:41:36.869Z,-6.70
2018-03-01T22:44:04.570Z,-6.60
2018-03-01T22:46:32.082Z,-6.30
2018-03-01T22:48:59.775Z,-6.30
2018-03-01T22:51:27.326Z,-6.40
2018-03-01T22:53:54.811Z,-6.50
2018-03-01T22:56:22.467Z,-6.20
2018-03-01T22:58:49.987Z,-6.40
2018-03-01T23:01:17.517Z,-6.40
2018-03-01T23:03:45.792Z,-6.20
2018-03-01T23:06:13.362Z,-6.20
2018-03-01T23:08:41.642Z,-6.30
2018-03-01T23:11:09.159Z,-6.30
2018-03-01T23:13:36.684Z,-6.30
2018-03-01T23:16:04.278Z,-6.20
2018-03-01T23:18:31.807Z,-6.50
2018-03-01T23:20:59.319Z,-6.40
2018-03-01T23:23:27.603Z,-6.30
2018-03-01T23:25:55.320Z,-6.30
2018-03-01T23:28:22.856Z,-6.30
2018-03-01T23:30:50.358Z,-6.50
2018-03-01T23:33:17.995Z,-6.40
2018-03-01T23:35:45.759Z,-6.50
2018-03-01T23:38:13.540Z,-6.40
2018-03-01T23:40:41.038Z,-6.30
2018-03-01T23:43:08.748Z,-6.40
2018-03-01T23:45:36.520Z,-6.60
2018-03-01T23:48:04.029Z,-6.60
2018-03-01T23:50:31.728Z,-6.60
2018-03-01T23:52:59.250Z,-6.70
2018-03-01T23:55:26.772Z,-6.80
2018-03-01T23:57:55.056Z,-6.80
